logo
Games tagged Sailing
# Game Release date
Price
Score rank
(Userscore / Metascore)
Owners
Players
Playtime (Median)
Developer(s)
Publisher(s)
1 Sid Meier's Pirates! Jul 11, 2005 $9.99N/A (N/A/88%)500,000 .. 1,000,0000%00:00 (00:00)Firaxis Games2K
2 Burly Men at Sea Sep 29, 2016 $9.99N/A (N/A/82%)50,000 .. 100,0000%00:00 (00:00)Brain&BrainBrain&Brain
3 Nantucket Jan 18, 2018 $5.39N/A (N/A/74%)100,000 .. 200,0000%00:00 (00:00)Picaresque StudioFish Eagle
4 Sea Dogs Nov 25, 2000 $11.99N/A (N/A/71%)50,000 .. 100,0000%00:00 (00:00)AkellaAkella
5 Here Be Dragons Aug 16, 2019 $9.99N/A (N/A/69%)0 .. 20,0000%00:00 (00:00)Red Zero GamesRed Zero Games
6 Fishing: Barents Sea Feb 7, 2018 $24.99N/A (N/A/69%)200,000 .. 500,0000%00:00 (00:00)Misc GamesMisc Games
7 Port Royale 4 Sep 25, 2020 $39.99N/A (N/A/68%)50,000 .. 100,00020%01:01 (00:20)Gaming MindsKalypso Media
8 Windward May 12, 2015 $9.99N/A (N/A/61%)200,000 .. 500,0000%00:00 (00:00)Tasharen Entertainment Inc.Tasharen Entertainment Inc.
9 Sea Dogs: City of Abandoned Ships May 12, 2009 $7.99N/A (N/A/61%)0 .. 20,0000%00:00 (00:00)AkellaAkella
10 Tempest: Pirate Action RPG Aug 22, 2016 $14.99N/A (N/A/60%)100,000 .. 200,0000%00:00 (00:00)Lion's ShadeHeroCraft PC
11 The Pirate: Caribbean Hunt Aug 24, 2016 FreeN/A (N/A)500,000 .. 1,000,0000%00:00 (00:00)Home Net GamesHome Net Games
12 Key To Heaven Apr 23, 2021 FreeN/A (N/A)20,000 .. 50,0000%00:00 (00:00)Far side of North StudioFar side of North Studio
13 Orion: The Eternal Punishment Jan 5, 2021 FreeN/A (N/A)20,000 .. 50,0000%00:00 (00:00)Frogames SLJuan Gabriel Gomila
14 Batterneers Dec 1, 2020 FreeN/A (N/A)0 .. 20,0000%00:00 (00:00)Batterneers DevBatterneers Dev
15 Aurora: A Child's Journey Nov 20, 2020 FreeN/A (N/A)20,000 .. 50,0000%00:00 (00:00)Luski Game StudioProthos
16 Pancake Sailor Apr 1, 2020 FreeN/A (N/A)20,000 .. 50,0000%00:00 (00:00)MarineVerseMarineVerse
17 Maelstrom Sep 20, 2019 FreeN/A (N/A)200,000 .. 500,0000%00:00 (00:00)Gunpowder Games, Inc.Double Jump Publishing
18 Uncharted Waters Online Dec 19, 2018 FreeN/A (N/A)50,000 .. 100,0000%00:00 (00:00)KOEI TECMO GAMES CO., LTD.Papaya Play
19 Unearned Bounty Aug 22, 2018 FreeN/A (N/A)100,000 .. 200,0000%00:00 (00:00)Extrokold GamesExtrokold Games
20 League of Pirates Mar 13, 2018 N/AN/A (N/A)0 .. 20,0000%00:00 (00:00)upjersupjers
21 The Last Leviathan Jun 22, 2016 $9.99N/A (N/A)50,000 .. 100,0000%00:00 (00:00)Super Punk GamesSuper Punk Games
22 Sea Dogs: To Each His Own - Pirate Open World RPG Feb 12, 2016 $14.99N/A (N/A)20,000 .. 50,0000%00:00 (00:00)BlackMark StudioAkella, Valkyrie Initiative
23 Blood and Gold: Caribbean! Dec 10, 2015 $19.99N/A (N/A)50,000 .. 100,0000%00:00 (00:00)Snowbird GamesSnowbird Games
24 VROOM: Galleon Sep 5, 2016 $6.99N/A (N/A)0 .. 20,0000%00:00 (00:00)VROOMVROOM
25 Assassin's Creed Freedom Cry Feb 25, 2014 $14.99N/A (N/A)200,000 .. 500,0000%00:00 (00:00)Ubisoft MontrealUbisoft
26 Port Royale 3 May 4, 2012 $14.99N/A (N/A)200,000 .. 500,0000%00:00 (00:00)Gaming Minds StudiosKalypso Media Digital
27 Sea Dogs: Caribbean Tales Sep 12, 2006 $11.99N/A (N/A)0 .. 20,0000%00:00 (00:00)AkellaAkella
28 UNDER the WATER - an ocean survival game May 23, 2022 $2.49N/A (N/A)50,000 .. 100,0000%00:00 (00:00)IndieMaxIndieMax
29 Boating Simulator 2022 May 3, 2022 $5.99N/A (N/A)0 .. 20,0000%00:00 (00:00)Sebastian Mol, Yusuf Kenawy, Will Johnson, Kyle Norton, Arlen Barrett, Sam Carson, Martin Berman, Owen GriffithsGoEarth Ltd
30 The Story of The Flood Apr 28, 2022 $3.99N/A (N/A)20,000 .. 50,0000%00:00 (00:00)ZHANG FANSHEN JIAWEI
31 Maritime Calling Apr 12, 2022 $9.74N/A (N/A)0 .. 20,0000%00:00 (00:00)Tiamat GamesTiamat Games
32 Buccaneers! Mar 7, 2022 $17.99N/A (N/A)0 .. 20,0000%00:00 (00:00)Skyward DigitalValkyrie Initiative
33 Pirate's Gold Mar 1, 2022 $9.99N/A (N/A)20,000 .. 50,0000%00:00 (00:00)Jochen Heizmann, Emmanuel HennéAsylum Square
34 Helm or High Water Feb 17, 2022 $14.99N/A (N/A)0 .. 20,0000%00:00 (00:00)Jordan HobgoodJordan Hobgood
35 Leningrad Jan 31, 2022 $0.99N/A (N/A)50,000 .. 100,0000%00:00 (00:00)Under ThreeUnder Three
36 Riding Seas Jan 31, 2022 $6.49N/A (N/A)0 .. 20,0000%00:00 (00:00)CatOnTree StudioCatOnTree Studio
37 Old Salt Jan 19, 2022 $14.99N/A (N/A)0 .. 20,0000%00:00 (00:00)Kneeshaw Developments, Never Board GamesKneeshaw Developments
38 Big Booty Adventures Jan 5, 2022 $8.99N/A (N/A)50,000 .. 100,0000%00:00 (00:00)NeVReal StudiosNeVReal Studios
39 BridgeTeam: Ship Simulator Jan 2, 2022 $29.99N/A (N/A)0 .. 20,0000%00:00 (00:00)Enrych Media Ltd.Enrych Media Ltd.
40 Rust Raiders Dec 20, 2021 $4.99N/A (N/A)0 .. 20,0000%00:00 (00:00)Overlord Game StudioOverlord Game Studio
41 Trash Sailors Dec 16, 2021 $19.99N/A (N/A)20,000 .. 50,0000%00:00 (00:00)fluckyMachinetinyBuild
42 Great Lakes Simulator Dec 15, 2021 $24.99N/A (N/A)0 .. 20,0000%00:00 (00:00)Digital LightDigital Light
43 Cruise Ship Handling Dec 15, 2021 $6.99N/A (N/A)0 .. 20,0000%00:00 (00:00)Aleksandr TurkinAleksandr Turkin
44 Breakwaters Dec 9, 2021 $19.99N/A (N/A)20,000 .. 50,0000%00:00 (00:00)Soaring Pixels GamesSoaring Pixels Games
45 Kiteboarding Pro Dec 8, 2021 $9.99N/A (N/A)0 .. 20,0000%00:00 (00:00)Sideways GameStudioSideways GameStudio
46 Chronicles of Deeps Nov 17, 2021 $9.99N/A (N/A)50,000 .. 100,0000%00:00 (00:00)GamelinerGameliner
47 Underwater Rescue Oct 30, 2021 $1.99N/A (N/A)0 .. 20,0000%00:00 (00:00)SosiskaGamesSosiskaGames
48 Moonglow Bay Oct 26, 2021 $24.99N/A (N/A)20,000 .. 50,0000%00:00 (00:00)BunnyhugCoatsink
49 Luffy: Way Back Home Oct 21, 2021 $1.99N/A (N/A)0 .. 20,0000%00:00 (00:00)Overaction Game StudioOveraction Game Studio
50 Sailwind Oct 18, 2021 $19.99N/A (N/A)0 .. 20,0000%00:00 (00:00)Raw Lion WorkshopRaw Lion Workshop
51 DROPTCH Oct 15, 2021 $5.99N/A (N/A)20,000 .. 50,0000%00:00 (00:00)Crunchy SushiCrunchy Sushi
52 Realms VR Sep 30, 2021 $3.99N/A (N/A)0 .. 20,0000%00:00 (00:00)Madman Games, RattlerCreedMadman Games
53 In Search of Fon Vitae Aug 30, 2021 $4.99N/A (N/A)0 .. 20,0000%00:00 (00:00)EarlgreyEarlgrey
54 Seafarers Aug 1, 2021 $4.99N/A (N/A)0 .. 20,0000%00:00 (00:00)Egghead Interactive LLC.Egghead Interactive LLC.
55 Furious Seas Jul 18, 2021 $19.99N/A (N/A)0 .. 20,0000%00:00 (00:00)Future ImmersiveFuture Immersive
56 Submarine War Jul 13, 2021 $0.79N/A (N/A)0 .. 20,0000%00:00 (00:00)Sub WarSub War
57 Ultra Boat Game!!! Jul 2, 2021 $1.99N/A (N/A)0 .. 20,0000%00:00 (00:00)TamashiiTamashii
58 Salt and Sails Jul 1, 2021 $9.99N/A (N/A)0 .. 20,0000%00:00 (00:00)DiaMMaxPiece Of Voxel
59 Athletics 3: Summer Sports Jun 25, 2021 $4.99N/A (N/A)0 .. 20,0000%00:00 (00:00)Olivier MonaretOlivier Monaret
60 Shipwreck Escape Jun 24, 2021 $9.99N/A (N/A)0 .. 20,0000%00:00 (00:00)Raccoons StudioRaccoons Studio
61 Luna's Fishing Garden Jun 16, 2021 $7.99N/A (N/A)20,000 .. 50,0000%00:00 (00:00)Coldwild Games, illufinchColdwild Games
62 Neko Beach Jun 11, 2021 $0.69N/A (N/A)0 .. 20,0000%00:00 (00:00)Yummy Yummy StudioHunny Bunny Studio
63 Wave Break Jun 11, 2021 $19.99N/A (N/A)0 .. 20,0000%00:00 (00:00)Funktronic LabsFunktronic Labs
64 Girls' civilization 2 Jun 1, 2021 $12.99N/A (N/A)0 .. 20,0000%00:00 (00:00)MoondolinoMoondolino
65 I Am the Captain Now May 27, 2021 $8.99N/A (N/A)0 .. 20,0000%00:00 (00:00)North Lake GamesNorth Lake Games
66 King of Seas May 25, 2021 $24.99N/A (N/A)20,000 .. 50,0000%00:00 (00:00)3DCloudsTeam17
67 The Sunken Hero May 7, 2021 $3.99N/A (N/A)0 .. 20,0000%00:00 (00:00)PixelMegaGamesCorpPixelMegaGamesCorp
68 Underwater Life Apr 20, 2021 $9.99N/A (N/A)0 .. 20,0000%00:00 (00:00)Stas Paty9mkinPiece Of Voxel
69 Suez Canal Simulator Apr 20, 2021 $19.99N/A (N/A)0 .. 20,0000%00:00 (00:00)Digital LightDigital Light
70 Ultimate Admiral: Age of Sail Apr 7, 2021 $29.99N/A (N/A)50,000 .. 100,0000%00:00 (00:00)Game-LabsGame-Labs
71 Dee-6: Dice Defenders Apr 1, 2021 $4.99N/A (N/A)0 .. 20,0000%00:00 (00:00)KBA3u's factoryKBA3u's factory
72 OceanCraft Feb 8, 2021 $9.99N/A (N/A)0 .. 20,0000%00:00 (00:00)FlodLabFlodLab UG (haftungsbeschraenkt)
73 Merchants of the Caribbean Mar 3, 2021 $6.99N/A (N/A)0 .. 20,0000%00:00 (00:00)GameOn ProductionAlawar Entertainment
74 Squareometry Feb 12, 2021 $0.99N/A (N/A)0 .. 20,0000%00:00 (00:00)Xutiz DevelopmentXutiz Development
75 Island Raft Survival 2021: Ocean Escape Feb 12, 2021 $2.99N/A (N/A)0 .. 20,0000%00:00 (00:00)Francolins studioFive River Solutions
76 Valheim Feb 2, 2021 $19.99N/A (N/A)20,000,000 .. 50,000,0004.07%09:22 (10:37)Iron Gate ABCoffee Stain Publishing
77 Fluid Simulator Jan 31, 2021 $4.99N/A (N/A)0 .. 20,0000%00:00 (00:00)CrazySimCrazyDistributive
78 Ship Handling Simulator Jan 3, 2021 $8.99N/A (N/A)0 .. 20,0000%00:00 (00:00)Aleksandr TurkinAleksandr Turkin
79 Powerboat VR Dec 29, 2020 $18.99N/A (N/A)0 .. 20,0000%00:00 (00:00)Jimmy Arcade LimitedJimmy Arcade Limited
80 Sink Again Dec 17, 2020 N/AN/A (N/A)20,000 .. 50,0000%00:00 (00:00)FlatcoonFlatcoon
81 The Tides of Time Nov 30, 2020 $3.99N/A (N/A)0 .. 20,0000%00:00 (00:00)Ohana StudioOhana Studio
82 Stowaway Nov 6, 2020 $4.99N/A (N/A)0 .. 20,0000%00:00 (00:00)Sandstorm Studios Inc.Sandstorm Studios Inc.
83 Half Blood RPG Oct 28, 2020 $9.99N/A (N/A)0 .. 20,0000%00:00 (00:00)OnemangamesOnemangames
84 The Den of Worms Oct 15, 2020 $9.99N/A (N/A)20,000 .. 50,0000%00:00 (00:00)Scream In To VoidScream In To Void
85 Out of Reach: Treasure Royale Oct 14, 2020 $14.99N/A (N/A)0 .. 20,0000%00:00 (00:00)Space Boat StudiosPlayWay S.A.
86 The Viking Way Oct 10, 2020 $14.99N/A (N/A)20,000 .. 50,0000%00:00 (00:00)Ice Lava GamesIce Lava Games
87 Sea Legends May 31, 1996 $6.99N/A (N/A)0 .. 20,0000%00:00 (00:00)Mir Dialogue, OceanZiggurat
88 California Games II Jun 1, 1990 $4.99N/A (N/A)0 .. 20,0000%00:00 (00:00)Epyx, Inc.Pixel Games UK
89 Stormworks: Build and Rescue Sep 17, 2020 $24.99N/A (N/A)500,000 .. 1,000,0003.57%10:55 (03:38)GeometaGeometa
90 Windbound Aug 28, 2020 $19.99N/A (N/A)20,000 .. 50,0000%00:00 (00:00)5 Lives StudiosDeep Silver
91 Dream Of Salmon Aug 15, 2020 $1.99N/A (N/A)20,000 .. 50,0000%00:00 (00:00)D.VirusD.Virus
92 Zango's Shark Adventure Jul 31, 2020 $4.99N/A (N/A)0 .. 20,0000%00:00 (00:00)ReflectiveByteReflectiveByte
93 Arctic Anxiety Jul 2, 2020 $2.99N/A (N/A)20,000 .. 50,0000%00:00 (00:00)Arctic StudioArctic Studio
94 My Sail And My Sea Jun 30, 2020 $2.99N/A (N/A)0 .. 20,0000%00:00 (00:00)心田游戏(Heart Field Games)心田游戏(Heart Field Games)
95 Sea of Thieves Jun 3, 2020 $39.99N/A (N/A)5,000,000 .. 10,000,0006.17%14:29 (07:06)Rare LtdXbox Game Studios
96 Oddest Sea May 28, 2020 $4.99N/A (N/A)0 .. 20,0000%00:00 (00:00)Harbored Games LLCHarbored Games LLC
97 Advancity Apr 22, 2020 $14.99N/A (N/A)20,000 .. 50,0000%00:00 (00:00)Tbjbu2 OriginalsTbjbu2 Originals
98 Deadliest Catch: The Game Apr 14, 2020 $19.99N/A (N/A)50,000 .. 100,0000%00:00 (00:00)4FishingUltimate Games S.A.
99 Victorian Admirals Marianas Incident 1887 Mar 9, 2020 $9.99N/A (N/A)0 .. 20,0000%00:00 (00:00)Totem GamesStrategy First
100 Victorian Admirals Samoan Crisis 1889 Mar 9, 2020 $9.99N/A (N/A)0 .. 20,0000%00:00 (00:00)Totem GamesStrategy First
101 Victorian Admirals Caroline Crisis 1885 Mar 9, 2020 $9.99N/A (N/A)0 .. 20,0000%00:00 (00:00)Totem GamesStrategy First
102 Victorian Admirals Panama Crisis 1885 Mar 9, 2020 $9.99N/A (N/A)0 .. 20,0000%00:00 (00:00)Totem GamesStrategy First
103 Horizon's Gate Mar 9, 2020 $19.99N/A (N/A)50,000 .. 100,0000%00:00 (00:00)Rad CodexRad Codex
104 Blackwake Feb 19, 2020 $0.49N/A (N/A)200,000 .. 500,0000%00:00 (00:00)Mastfire Studios Pty LtdMastfire Studios Pty Ltd
105 Stop Sign VR Tools Dec 17, 2019 $5.99N/A (N/A)0 .. 20,0000%00:00 (00:00)Reality Inside Ltd.Reality Inside Ltd.
106 Of Ships & Scoundrels Nov 14, 2019 $14.99N/A (N/A)0 .. 20,0000%00:00 (00:00)Korion GamesKorion Games
107 Feral Blue Oct 22, 2019 $19.99N/A (N/A)0 .. 20,0000%00:00 (00:00)Snowbird GamesSnowbird Games
108 Mutiny Island Oct 18, 2019 $7.99N/A (N/A)20,000 .. 50,0000%00:00 (00:00)ElushisElushis Music & Gaming
109 MarineVerse Cup - Sailboat Racing Aug 21, 2019 $9.99N/A (N/A)0 .. 20,0000%00:00 (00:00)MarineVerseMarineVerse
110 Naval Action Jun 13, 2019 $19.99N/A (N/A)200,000 .. 500,00014.29%03:07 (01:02)Game-LabsGame-Labs
111 Shipped Mar 28, 2019 $5.99N/A (N/A)20,000 .. 50,0000%00:00 (00:00)MajorariattoMajorariatto
112 eSail Sailing Simulator Mar 26, 2019 $34.99N/A (N/A)0 .. 20,0000%00:00 (00:00)eSail Ltd.CDIS
113 Block of Rum Feb 5, 2019 $1.39N/A (N/A)0 .. 20,0000%00:00 (00:00)Obi-WanyaObi-Wanya
114 Sea Birds: End of an Age Jan 1, 2019 $1.99N/A (N/A)0 .. 20,0000%00:00 (00:00)Kevin AdamsKevin Adams
115 ATLAS Dec 22, 2018 $29.99N/A (N/A)1,000,000 .. 2,000,0001.82%00:15 (00:05)Grapeshot Games, Instinct GamesGrapeshot Games
116 Pirates of the Polygon Sea Nov 30, 2018 $8.99N/A (N/A)0 .. 20,0000%00:00 (00:00)Praxia EntertainmentPraxia Entertainment
117 Big Breezy Boat - Relaxing Sailing Oct 23, 2018 $9.99N/A (N/A)0 .. 20,0000%00:00 (00:00)MarineVerseMarineVerse
118 NavalArt Jun 20, 2018 $14.99N/A (N/A)20,000 .. 50,0000%00:00 (00:00)RigidbodyRig&Zig Entertainment
119 Sail Ships Jun 4, 2018 $1.99N/A (N/A)0 .. 20,0000%00:00 (00:00)DhauseDhause
120 Hovercraft Drive Apr 6, 2018 $4.99N/A (N/A)0 .. 20,0000%00:00 (00:00)Builder7Bitlock Studio
121 Make Sail Mar 30, 2018 $19.99N/A (N/A)0 .. 20,0000%00:00 (00:00)PopcannibalPopcannibal
122 Sailaway - The Sailing Simulator Feb 27, 2018 $45N/A (N/A)20,000 .. 50,0000%00:00 (00:00)OrbcreationOrbcreation
123 Escape The Pacific Feb 23, 2018 $14.99N/A (N/A)20,000 .. 50,0000%00:00 (00:00)Gamers4Gamers TeamGamers4Gamers Team
124 Salt Feb 6, 2018 $14.99N/A (N/A)50,000 .. 100,0000%00:00 (00:00)Lavaboots StudiosLavaboots Studios
125 VR Regatta - The Sailing Game Jan 30, 2018 $29.99N/A (N/A)500,000 .. 1,000,0000%00:00 (00:00)MarineVerseMarineVerse
126 Captain Firebeard and the Bay of Crows Oct 4, 2017 $9.99N/A (N/A)0 .. 20,0000%00:00 (00:00)Sapphire Dragon ProductionsSapphire Dragon Productions
127 The Caribbean Sail Sep 19, 2017 $14.99N/A (N/A)0 .. 20,0000%00:00 (00:00)Victorian ClambakeVictorian Clambake
128 Blue Horizon Aug 18, 2017 $5.99N/A (N/A)0 .. 20,0000%00:00 (00:00)Blue Horizon Studios LtdBlue Horizon Studios Ltd
129 Tailwind Jul 28, 2017 $1.99N/A (N/A)0 .. 20,0000%00:00 (00:00)ClickGamesClickGames
130 Magnificent Ships: Volume 2 May 18, 2017 $9.99N/A (N/A)0 .. 20,0000%00:00 (00:00)VROOMVROOM
131 Soul Searching Feb 15, 2017 $9.99N/A (N/A)0 .. 20,0000%00:00 (00:00)KayabrosNakana.io, Kayabros
132 Winds Of Trade Feb 13, 2017 $11.99N/A (N/A)0 .. 20,0000%00:00 (00:00)Hermes InteractiveHermes Interactive
133 Ships 2017 Oct 19, 2016 $14.99N/A (N/A)20,000 .. 50,0000%00:00 (00:00)FragOutGames Box, SIG Publishing
Overview

Sailing

Games with this tag: 133
Average userscore: N/A%
Average metascore: 70.3%
Average playtime: 06:32
Total copies owned: 36,193,000
Average price: $12.02
Help

Owners: Estimated number of people owning this game. The number might be way too small for new releases and sometimes way too big for games that had free weekend event recently. Read more on About page.

Playtime: Average hours played in total per person that have actually launched this game since March 2009. This time is calculated for the whole lifetime, not for the particular year.

Average score: Average users and metacritic score for all games with this score assigned.

Average playtime: Average lifetime playtime for all games where this data is available.

Games in this genre: Self-explaining - number of games with this tag. Only inculdes games with sales data available.

Total copies owned: Refers to total copies of games with this tag acquired by users for the lifetime. Includes copies sold, downloaded for free and given out.

This number might be too small for recently released games or too big for games that had a free weekend in the last couple of months.

Graphs

Login required.

Please register or log in to see this information.

Login required.

Please register or log in to see this information.